Terminal Aerodrome Forecast
Issued by NWS La Crosse, WI

Home | Current Version | Previous Version | Text Only | Print | Product List | Glossary On
Versions: 1 2 3 4 5 6 7 8 9 10 11 12 13 14 15 16 17 18 19 20
000
FTUS43 KARX 190902 AAA
TAFRST
TAF AMD
KRST 190902Z 1909/2006 VRB03KT P6SM SKC
     FM191100 VRB03KT 4SM BR SKC
     FM191400 26004KT P6SM SKC
     FM200200 19004KT P6SM SKC=

USA.gov is the U.S. government's official web portal to all federal, state and local government web resources and services.